Terminal Aerodrome Forecast
Issued by NWS

Home | Current Version | Previous Version | Text Only | Print | Product List | Glossary On
Versions: 1 2 3 4 5 6 7 8 9 10 11 12 13 14 15 16 17 18 19 20 21 22
000
FTUS43 KDMX 221140
TAFMCW
TAF
KMCW 221140Z 2212/2312 04020G36KT 2SM RA BR OVC006
     FM221400 04026G38KT 1SM RA BR OVC006
     FM221600 05024G34KT 3/4SM RA BR OVC005
     FM221800 04022G31KT 1SM -SNRA BR BLSN OVC004
     FM222000 03021G29KT 1 1/2SM -RA BR OVC004
     FM222200 01021G29KT 2SM -FZRA BR OVC005
     FM230300 35022G32KT 1SM -SN BR OVC008=

USA.gov is the U.S. government's official web portal to all federal, state and local government web resources and services.